Terminal Aerodrome Forecast
Issued by NWS

Home | Current Version | Previous Version | Graphics & Text | Print | Product List | Glossary On
Versions: 1 2 3 4 5 6 7 8 9 10 11 12 13 14 15 16
000
FTUS43 KICT 210500
TAFHUT
TAF
KHUT 210520Z 2106/2206 19010KT P6SM BKN100
     FM210900 18010KT P6SM BKN015
     FM211400 34010KT P6SM SCT025 BKN100
     FM212000 36010KT P6SM SCT100=

USA.gov is the U.S. government's official web portal to all federal, state and local government web resources and services.